Time;durP1;ratioP1;P1;durP2;ratioP2;P2;SDS_P1;SDS_P2;PMS_P1;PMS_P2;Temp;Humidity;BMP_temperature;BMP_pressure;BME280_temperature;BME280_humidity;BME280_pressure;Samples;Min_cycle;Max_cycle;Signal;HPM_P1;HPM_P2
2021/11/14 00:02:15;;;;;;;4.38;3.80;;;13.10;81.70;;;;;;4989439;28;20393;-80
2021/11/14 00:04:46;;;;;;;5.40;3.53;;;13.00;82.10;;;;;;4971834;28;20394;-82
2021/11/14 00:07:14;;;;;;;3.95;3.55;;;13.00;81.60;;;;;;4989164;28;20022;-79
2021/11/14 00:09:40;;;;;;;4.57;3.90;;;13.00;81.60;;;;;;4988929;28;20031;-82
2021/11/14 00:12:06;;;;;;;4.25;3.75;;;13.00;81.60;;;;;;4971802;28;20026;-79
2021/11/14 00:14:32;;;;;;;4.28;3.88;;;13.00;81.60;;;;;;4989024;28;20038;-82
2021/11/14 00:16:58;;;;;;;4.78;4.28;;;13.00;81.60;;;;;;4971170;28;20053;-78
2021/11/14 00:19:24;;;;;;;4.75;4.18;;;13.00;81.70;;;;;;4988687;28;20062;-78
2021/11/14 00:21:51;;;;;;;4.95;4.03;;;13.00;81.70;;;;;;4987960;28;20485;-79
2021/11/14 00:24:17;;;;;;;4.90;4.22;;;13.00;81.70;;;;;;4988315;28;20160;-78
2021/11/14 00:26:44;;;;;;;5.07;3.38;;;12.90;81.50;;;;;;4970804;28;20108;-79
2021/11/14 00:29:12;;;;;;;5.40;4.32;;;12.90;81.50;;;;;;4971487;28;20057;-79
2021/11/14 00:31:38;;;;;;;4.43;4.03;;;13.00;81.70;;;;;;4971731;28;20077;-79
2021/11/14 00:34:06;;;;;;;5.25;4.22;;;12.90;81.60;;;;;;4971080;28;20026;-79
2021/11/14 00:36:38;;;;;;;5.53;4.25;;;12.90;81.60;;;;;;4988028;28;20489;-80
2021/11/14 00:39:09;;;;;;;4.88;4.35;;;12.90;81.60;;;;;;4987782;28;20057;-78
2021/11/14 00:41:35;;;;;;;4.32;3.90;;;12.90;81.60;;;;;;4970424;28;20117;-79
2021/11/14 00:44:04;;;;;;;4.68;4.00;;;12.90;81.60;;;;;;4988652;28;20030;-80
2021/11/14 00:46:30;;;;;;;5.53;4.18;;;12.90;81.60;;;;;;4988504;28;20061;-79
2021/11/14 00:48:56;;;;;;;5.53;4.57;;;12.90;81.70;;;;;;4970390;28;20034;-78
2021/11/14 00:51:29;;;;;;;5.13;4.63;;;12.90;81.70;;;;;;4987941;28;20121;-80
2021/11/14 00:54:02;;;;;;;4.47;3.78;;;12.80;81.50;;;;;;4959292;28;20114;-79
2021/11/14 00:56:29;;;;;;;4.55;4.15;;;12.90;81.70;;;;;;4968516;28;20057;-80
2021/11/14 00:58:57;;;;;;;5.13;4.63;;;12.90;81.70;;;;;;4968564;28;20031;-81
2021/11/14 01:01:24;;;;;;;5.22;4.53;;;12.80;81.50;;;;;;4969464;28;20031;-81
2021/11/14 01:03:51;;;;;;;5.57;4.75;;;12.80;81.60;;;;;;4984955;28;20613;-81
2021/11/14 01:06:17;;;;;;;4.75;4.22;;;12.80;81.60;;;;;;4988447;28;20461;-78
2021/11/14 01:08:43;;;;;;;5.20;4.38;;;12.80;81.60;;;;;;4969611;28;20081;-78
2021/11/14 01:11:10;;;;;;;6.30;4.68;;;12.80;81.60;;;;;;4987928;28;20034;-76
2021/11/14 01:13:38;;;;;;;5.22;4.13;;;12.80;81.60;;;;;;4987575;28;20045;-77
2021/11/14 01:16:08;;;;;;;5.43;4.40;;;12.80;81.70;;;;;;4988221;28;20493;-79
2021/11/14 01:18:34;;;;;;;5.78;4.53;;;12.80;81.70;;;;;;4987965;28;20023;-77
2021/11/14 01:21:03;;;;;;;7.53;5.32;;;12.80;81.70;;;;;;4987611;28;20034;-78
2021/11/14 01:23:29;;;;;;;5.07;4.53;;;12.80;81.70;;;;;;4970323;28;20367;-79
2021/11/14 01:25:55;;;;;;;5.93;4.40;;;12.80;81.70;;;;;;4987703;28;20041;-78
2021/11/14 01:28:22;;;;;;;6.22;5.18;;;12.80;81.70;;;;;;4970400;28;20042;-79
2021/11/14 01:30:51;;;;;;;5.15;4.50;;;12.80;81.70;;;;;;4970016;28;20534;-79
2021/11/14 01:33:20;;;;;;;4.95;4.28;;;12.70;81.60;;;;;;4969843;28;20026;-82
2021/11/14 01:35:47;;;;;;;5.50;4.45;;;12.80;81.70;;;;;;4987654;28;20092;-80
2021/11/14 01:38:13;;;;;;;6.07;4.38;;;12.70;81.60;;;;;;4969410;28;20041;-79
2021/11/14 01:40:44;;;;;;;5.68;5.07;;;12.80;81.70;;;;;;4987167;28;20034;-77
2021/11/14 01:43:12;;;;;;;6.22;4.68;;;12.70;81.60;;;;;;4965107;28;20031;-80
2021/11/14 01:45:39;;;;;;;6.38;4.82;;;12.80;81.80;;;;;;4968290;28;20482;-79
2021/11/14 01:48:06;;;;;;;5.88;4.63;;;12.80;82.30;;;;;;4967220;28;20093;-79
2021/11/14 01:50:33;;;;;;;4.95;4.55;;;12.70;81.60;;;;;;4949871;28;20108;-79
2021/11/14 01:52:59;;;;;;;5.82;4.80;;;12.70;81.60;;;;;;4950232;28;20527;-78
2021/11/14 01:55:30;;;;;;;5.47;4.97;;;12.70;81.60;;;;;;4968114;28;20070;-78
2021/11/14 01:57:57;;;;;;;5.63;4.53;;;12.80;81.80;;;;;;4967612;28;20093;-79
2021/11/14 02:00:30;;;;;;;6.30;4.88;;;12.70;81.60;;;;;;4950363;28;20434;-78
2021/11/14 02:02:56;;;;;;;5.38;4.85;;;12.70;81.60;;;;;;4976491;28;20062;-78
2021/11/14 02:05:25;;;;;;;6.40;4.63;;;12.70;81.60;;;;;;4969336;28;20026;-79
2021/11/14 02:07:52;;;;;;;5.28;4.75;;;12.70;81.60;;;;;;4987539;28;20493;-79
2021/11/14 02:10:20;;;;;;;5.35;4.85;;;12.70;81.60;;;;;;4969135;28;20034;-78
2021/11/14 02:12:46;;;;;;;5.80;4.25;;;12.70;81.60;;;;;;4987136;28;20026;-82
2021/11/14 02:15:12;;;;;;;7.53;5.55;;;12.60;81.50;;;;;;4986795;28;20391;-78
2021/11/14 02:17:38;;;;;;;5.57;4.70;;;12.60;81.50;;;;;;4961252;28;20109;-79
2021/11/14 02:20:06;;;;;;;5.22;4.82;;;12.60;81.50;;;;;;4967395;28;20035;-78
2021/11/14 02:22:32;;;;;;;5.70;5.20;;;12.60;81.60;;;;;;4949546;28;20042;-77
2021/11/14 02:24:59;;;;;;;5.75;5.00;;;12.60;81.50;;;;;;4967190;28;20046;-81
2021/11/14 02:27:25;;;;;;;5.05;4.35;;;12.60;81.60;;;;;;4967432;28;20037;-78
2021/11/14 02:29:51;;;;;;;5.95;4.53;;;12.60;82.10;;;;;;4967177;28;20034;-81
2021/11/14 02:32:18;;;;;;;5.53;4.72;;;12.60;81.60;;;;;;4950913;28;20038;-77
2021/11/14 02:34:44;;;;;;;5.40;4.20;;;12.60;81.60;;;;;;4969076;28;20132;-77
2021/11/14 02:37:10;;;;;;;5.00;4.50;;;12.60;81.60;;;;;;4951600;28;20482;-81
2021/11/14 02:39:36;;;;;;;5.15;4.65;;;12.60;81.70;;;;;;4981363;28;20027;-78
2021/11/14 02:42:04;;;;;;;6.28;4.80;;;12.60;81.70;;;;;;4970688;28;20160;-79
2021/11/14 02:44:30;;;;;;;4.53;4.13;;;12.60;81.60;;;;;;4971253;28;20030;-80
2021/11/14 02:46:58;;;;;;;4.85;4.35;;;12.60;81.60;;;;;;4957336;28;20034;-78
2021/11/14 02:49:24;;;;;;;4.57;4.18;;;12.60;81.60;;;;;;4972091;28;20031;-77
2021/11/14 02:51:51;;;;;;;4.65;4.15;;;12.60;81.60;;;;;;4971165;28;20240;-79
2021/11/14 02:54:17;;;;;;;4.90;4.32;;;12.60;81.60;;;;;;4971670;28;20117;-78
2021/11/14 02:56:43;;;;;;;4.80;4.40;;;12.60;82.10;;;;;;4971447;28;20038;-79
2021/11/14 02:59:10;;;;;;;5.85;4.82;;;12.60;81.60;;;;;;4954515;28;20262;-79
2021/11/14 03:01:45;;;;;;;4.78;3.70;;;12.50;81.40;;;;;;4974646;28;20039;-79
2021/11/14 03:04:17;;;;;;;4.65;4.13;;;12.50;81.40;;;;;;4961137;28;20040;-79
2021/11/14 03:06:43;;;;;;;4.43;3.95;;;12.50;81.40;;;;;;4994804;28;20450;-82
2021/11/14 03:09:10;;;;;;;4.95;3.90;;;12.50;81.40;;;;;;4977734;28;20038;-80
2021/11/14 03:11:36;;;;;;;5.35;4.00;;;12.50;81.40;;;;;;4994853;28;20137;-80
2021/11/14 03:14:03;;;;;;;4.88;3.95;;;12.50;81.40;;;;;;4994582;28;20031;-81
2021/11/14 03:16:29;;;;;;;3.88;3.53;;;12.40;81.20;;;;;;4994604;28;20397;-80
2021/11/14 03:18:56;;;;;;;4.13;3.75;;;12.40;81.30;;;;;;4994561;28;20030;-79
2021/11/14 03:21:23;;;;;;;4.75;4.30;;;12.40;81.30;;;;;;4994931;28;20121;-79
2021/11/14 03:23:49;;;;;;;4.55;4.13;;;12.40;81.30;;;;;;4976709;28;20030;-79
2021/11/14 03:26:15;;;;;;;4.93;3.90;;;12.40;81.30;;;;;;4977093;28;20085;-78
2021/11/14 03:28:42;;;;;;;5.90;3.58;;;12.40;81.30;;;;;;4994243;28;20030;-80
2021/11/14 03:31:08;;;;;;;6.55;4.03;;;12.40;81.30;;;;;;4961231;28;20030;-78
2021/11/14 03:33:34;;;;;;;5.22;3.67;;;12.40;81.30;;;;;;4976891;28;20030;-79
2021/11/14 03:36:05;;;;;;;4.40;4.00;;;12.40;81.30;;;;;;4994408;28;20517;-78
2021/11/14 03:38:34;;;;;;;4.97;3.80;;;12.30;81.10;;;;;;4993804;28;20030;-78
2021/11/14 03:41:02;;;;;;;4.05;3.65;;;12.30;81.10;;;;;;4977095;28;20563;-77
2021/11/14 03:43:29;;;;;;;4.60;4.15;;;12.30;81.00;;;;;;4976392;28;20497;-77
2021/11/14 03:45:55;;;;;;;4.15;3.58;;;12.20;80.80;;;;;;4994197;28;20035;-77
2021/11/14 03:48:23;;;;;;;5.60;4.28;;;12.20;80.80;;;;;;4994131;28;20073;-78
2021/11/14 03:50:50;;;;;;;4.45;4.05;;;12.20;80.80;;;;;;4993653;28;20057;-77
2021/11/14 03:53:16;;;;;;;3.25;2.80;;;12.10;80.60;;;;;;4993664;28;20034;-77
2021/11/14 03:55:44;;;;;;;3.47;3.17;;;12.10;80.70;;;;;;4976441;28;20461;-77
2021/11/14 03:58:10;;;;;;;4.45;3.53;;;12.10;80.70;;;;;;4993807;28;20026;-78
2021/11/14 04:00:40;;;;;;;3.50;3.10;;;12.00;80.50;;;;;;4993857;28;20031;-78
2021/11/14 04:03:07;;;;;;;6.10;3.63;;;12.00;80.50;;;;;;4993370;28;20043;-77
2021/11/14 04:05:34;;;;;;;3.63;3.00;;;12.00;80.60;;;;;;4976326;28;20089;-77
2021/11/14 04:08:05;;;;;;;3.75;3.28;;;11.90;80.50;;;;;;4993604;28;20058;-79
2021/11/14 04:10:32;;;;;;;4.18;3.20;;;11.90;80.50;;;;;;4976189;28;20032;-77
2021/11/14 04:12:57;;;;;;;4.25;3.70;;;11.90;80.60;;;;;;4992565;28;20478;-77
2021/11/14 04:15:24;;;;;;;3.58;3.28;;;11.90;80.60;;;;;;4993215;28;20038;-78
2021/11/14 04:17:55;;;;;;;3.58;3.25;;;11.80;80.50;;;;;;4993146;28;20028;-78
2021/11/14 04:20:24;;;;;;;3.88;3.47;;;11.80;80.50;;;;;;4994172;28;20038;-78
2021/11/14 04:22:50;;;;;;;4.68;3.42;;;11.70;80.40;;;;;;4975074;28;20113;-79
2021/11/14 04:25:16;;;;;;;3.72;3.17;;;11.70;80.40;;;;;;4976428;28;20084;-78
2021/11/14 04:27:42;;;;;;;3.92;3.40;;;11.70;80.40;;;;;;4976065;28;20034;-78
2021/11/14 04:30:09;;;;;;;5.30;3.28;;;11.70;80.50;;;;;;4993158;28;20030;-79
2021/11/14 04:32:35;;;;;;;4.55;3.60;;;11.60;80.40;;;;;;4976078;28;20089;-79
2021/11/14 04:35:01;;;;;;;4.13;3.30;;;11.60;80.40;;;;;;4993257;28;20034;-79
2021/11/14 04:37:27;;;;;;;4.10;3.67;;;11.60;80.40;;;;;;4975784;28;20549;-78
2021/11/14 04:39:54;;;;;;;3.35;3.05;;;11.60;80.40;;;;;;4959893;28;20030;-79
2021/11/14 04:42:19;;;;;;;3.65;3.28;;;11.50;80.30;;;;;;4959448;28;20030;-81
2021/11/14 04:44:46;;;;;;;4.47;3.40;;;11.50;80.30;;;;;;4993152;28;20110;-78
2021/11/14 04:47:12;;;;;;;3.67;3.30;;;11.50;80.30;;;;;;4992636;28;20027;-79
2021/11/14 04:49:41;;;;;;;4.00;2.90;;;11.40;80.20;;;;;;4975939;28;20023;-80
2021/11/14 04:52:08;;;;;;;3.85;3.15;;;11.40;80.20;;;;;;4975199;28;20042;-78
2021/11/14 04:54:34;;;;;;;4.57;3.22;;;11.40;80.30;;;;;;4975785;28;20061;-79
2021/11/14 04:57:00;;;;;;;3.88;3.17;;;11.40;80.30;;;;;;4992694;28;20485;-79
2021/11/14 04:59:26;;;;;;;3.40;2.88;;;11.30;80.20;;;;;;4992979;28;20030;-80
2021/11/14 05:01:52;;;;;;;3.45;2.85;;;11.30;80.20;;;;;;4992147;28;20080;-79
2021/11/14 05:04:18;;;;;;;3.50;3.20;;;11.30;80.20;;;;;;4992550;28;20363;-81
2021/11/14 05:06:44;;;;;;;4.15;3.38;;;11.30;80.20;;;;;;4992646;28;20037;-79
2021/11/14 05:09:10;;;;;;;3.88;3.13;;;11.20;80.00;;;;;;4975355;28;20039;-79
2021/11/14 05:11:36;;;;;;;3.83;3.13;;;11.20;80.00;;;;;;4992730;28;20390;-78
2021/11/14 05:14:03;;;;;;;3.33;3.03;;;11.20;80.10;;;;;;4959100;28;20038;-78
2021/11/14 05:16:29;;;;;;;3.78;3.00;;;11.20;80.10;;;;;;4974776;28;20507;-77
2021/11/14 05:18:56;;;;;;;3.15;2.88;;;11.10;79.90;;;;;;4975396;28;20034;-79
2021/11/14 05:21:22;;;;;;;4.15;3.45;;;11.10;80.00;;;;;;4992325;28;20030;-77
2021/11/14 05:23:48;;;;;;;6.20;3.42;;;11.10;80.00;;;;;;4974162;28;20458;-77
2021/11/14 05:26:15;;;;;;;4.60;3.17;;;11.10;80.00;;;;;;4975209;28;20034;-77
2021/11/14 05:28:41;;;;;;;4.78;3.10;;;11.10;80.00;;;;;;4992217;28;20022;-79
2021/11/14 05:31:07;;;;;;;4.97;3.03;;;11.00;79.80;;;;;;4992311;28;20118;-78
2021/11/14 05:33:33;;;;;;;4.72;3.55;;;11.00;79.90;;;;;;4974771;28;20037;-78
2021/11/14 05:35:59;;;;;;;4.68;3.40;;;11.00;79.90;;;;;;4992681;28;20034;-77
2021/11/14 05:38:25;;;;;;;3.85;3.00;;;10.90;79.70;;;;;;4992056;28;20113;-76
2021/11/14 05:40:51;;;;;;;4.53;3.33;;;10.90;79.70;;;;;;4991504;28;20521;-77
2021/11/14 05:43:17;;;;;;;3.78;3.20;;;10.90;79.70;;;;;;4991886;28;20125;-77
2021/11/14 05:45:44;;;;;;;3.92;3.50;;;10.80;79.50;;;;;;4991674;28;20121;-76
2021/11/14 05:48:10;;;;;;;3.58;3.22;;;10.80;79.60;;;;;;4987632;28;20389;-80
2021/11/14 05:50:36;;;;;;;4.03;3.47;;;10.80;79.60;;;;;;4971803;28;20038;-78
2021/11/14 05:53:04;;;;;;;4.32;3.55;;;10.80;79.60;;;;;;4988655;28;20049;-79
2021/11/14 05:55:30;;;;;;;4.07;3.63;;;10.70;79.40;;;;;;4955316;28;20042;-79
2021/11/14 05:57:59;;;;;;;4.70;3.45;;;10.70;79.40;;;;;;4971235;28;20105;-78
2021/11/14 06:05:38;;;;;;;3.55;3.22;;;10.60;79.30;;;;;;4967721;28;20059;-78
2021/11/14 06:08:06;;;;;;;4.43;3.78;;;10.50;79.10;;;;;;4974278;28;20022;-78
2021/11/14 06:10:33;;;;;;;3.63;3.33;;;10.50;79.10;;;;;;4969903;28;20038;-78
2021/11/14 06:13:00;;;;;;;4.63;3.42;;;10.50;79.10;;;;;;4986882;28;20096;-77
2021/11/14 06:15:26;;;;;;;3.85;3.45;;;10.40;79.00;;;;;;4987223;28;20039;-77
2021/11/14 06:17:52;;;;;;;4.40;3.22;;;10.40;79.00;;;;;;4987074;28;20135;-78
2021/11/14 06:20:21;;;;;;;4.32;3.47;;;10.40;79.00;;;;;;4986675;28;20466;-77
2021/11/14 06:22:47;;;;;;;5.03;3.70;;;10.40;79.00;;;;;;4968508;28;20052;-78
2021/11/14 06:25:13;;;;;;;5.32;4.35;;;10.40;79.10;;;;;;4986992;28;20038;-79
2021/11/14 06:27:41;;;;;;;3.95;3.55;;;10.40;79.10;;;;;;4986313;28;20030;-77
2021/11/14 06:30:10;;;;;;;7.53;4.00;;;10.30;78.90;;;;;;4986733;28;20034;-78
2021/11/14 06:32:36;;;;;;;4.03;3.42;;;10.30;78.90;;;;;;4987192;28;20122;-78
2021/11/14 06:35:02;;;;;;;3.92;3.20;;;10.30;79.00;;;;;;4969818;28;20528;-78
2021/11/14 06:37:29;;;;;;;4.53;3.20;;;10.20;78.80;;;;;;4973382;28;20070;-79
2021/11/14 06:39:55;;;;;;;4.57;4.15;;;10.20;78.80;;;;;;4990507;28;20038;-80
2021/11/14 06:42:21;;;;;;;3.72;3.42;;;10.20;78.80;;;;;;4990508;28;20033;-82
2021/11/14 06:44:48;;;;;;;5.25;4.00;;;10.20;78.80;;;;;;4990698;28;20504;-78
2021/11/14 06:47:14;;;;;;;4.68;3.60;;;10.10;78.70;;;;;;4990658;28;20065;-80
2021/11/14 06:49:41;;;;;;;3.60;3.25;;;10.10;78.70;;;;;;4973890;28;20038;-79
2021/11/14 06:52:08;;;;;;;3.65;3.35;;;10.10;78.70;;;;;;4990299;28;20041;-79
2021/11/14 06:54:35;;;;;;;4.22;3.50;;;10.10;78.70;;;;;;4991148;28;20033;-85
2021/11/14 06:57:01;;;;;;;4.95;3.75;;;10.00;78.50;;;;;;4990314;28;20105;-81
2021/11/14 06:59:27;;;;;;;4.43;3.28;;;10.00;78.50;;;;;;4972644;28;20033;-77
2021/11/14 07:01:53;;;;;;;4.03;3.63;;;10.00;78.50;;;;;;4990876;28;20336;-80
2021/11/14 07:04:19;;;;;;;4.57;3.55;;;10.00;78.60;;;;;;4990295;28;20502;-82
2021/11/14 07:06:46;;;;;;;4.45;3.60;;;9.90;78.40;;;;;;4990293;28;20485;-82
2021/11/14 07:09:13;;;;;;;5.32;3.78;;;9.90;78.50;;;;;;4990166;28;20038;-80
2021/11/14 07:11:39;;;;;;;5.05;4.13;;;9.90;78.50;;;;;;4973909;28;20022;-81
2021/11/14 07:14:06;;;;;;;4.28;3.85;;;9.90;78.50;;;;;;4973170;28;20037;-82
2021/11/14 07:16:33;;;;;;;5.72;3.47;;;9.90;78.50;;;;;;4970649;28;20506;-82
2021/11/14 07:18:59;;;;;;;4.28;3.85;;;9.80;78.40;;;;;;4970877;28;20074;-80
2021/11/14 07:21:25;;;;;;;4.15;3.75;;;9.80;78.40;;;;;;4953671;28;20537;-80
2021/11/14 07:23:52;;;;;;;3.72;3.42;;;9.80;78.40;;;;;;4970369;28;20035;-81
2021/11/14 07:26:18;;;;;;;3.53;3.22;;;9.80;78.50;;;;;;4953837;28;20078;-83
2021/11/14 07:28:44;;;;;;;4.05;3.75;;;9.80;78.50;;;;;;4970835;28;20098;-83
2021/11/14 07:31:10;;;;;;;3.70;3.08;;;9.80;78.50;;;;;;4953673;28;20134;-83
2021/11/14 07:33:36;;;;;;;3.70;3.30;;;9.80;78.50;;;;;;4966982;28;20518;-83
2021/11/14 07:36:02;;;;;;;4.45;3.63;;;9.70;78.30;;;;;;4989638;28;20068;-80
2021/11/14 07:38:28;;;;;;;4.72;4.03;;;9.70;78.30;;;;;;4989714;28;20097;-85
2021/11/14 07:40:54;;;;;;;3.50;3.20;;;9.70;78.30;;;;;;4970721;28;20434;-79
2021/11/14 07:43:20;;;;;;;4.95;3.47;;;9.70;78.30;;;;;;4969756;28;20105;-79
2021/11/14 07:45:46;;;;;;;4.10;3.70;;;9.70;78.30;;;;;;4970560;28;20042;-82
2021/11/14 07:48:12;;;;;;;3.55;3.22;;;9.60;78.10;;;;;;4968812;28;20031;-81
2021/11/14 07:50:41;;;;;;;4.05;3.58;;;9.60;78.20;;;;;;4970348;28;20034;-80
2021/11/14 07:53:08;;;;;;;3.80;3.47;;;9.60;78.20;;;;;;4969256;28;20038;-82
2021/11/14 07:55:34;;;;;;;4.03;3.63;;;9.60;78.20;;;;;;4969918;28;20077;-77
2021/11/14 07:58:06;;;;;;;3.67;3.38;;;9.50;78.00;;;;;;4952807;28;20390;-78
2021/11/14 08:00:34;;;;;;;3.75;2.97;;;9.60;78.20;;;;;;4966005;28;20090;-78
2021/11/14 08:03:00;;;;;;;3.85;3.17;;;9.50;78.00;;;;;;4978220;28;20053;-81
2021/11/14 08:05:28;;;;;;;3.78;3.38;;;9.50;78.10;;;;;;4971522;28;20038;-81
2021/11/14 08:07:55;;;;;;;3.42;3.13;;;9.50;78.10;;;;;;4988804;28;20473;-85
2021/11/14 08:10:21;;;;;;;4.05;3.63;;;9.50;78.10;;;;;;4989213;28;20038;-82
2021/11/14 08:12:47;;;;;;;3.30;3.03;;;9.50;78.10;;;;;;4988792;28;20398;-81
2021/11/14 08:15:16;;;;;;;4.53;3.88;;;9.50;78.10;;;;;;4989824;28;20038;-80
2021/11/14 08:17:42;;;;;;;3.20;2.90;;;9.50;78.10;;;;;;4971057;28;20346;-81
2021/11/14 08:20:10;;;;;;;3.53;3.22;;;9.50;78.10;;;;;;4989041;28;20109;-82
2021/11/14 08:22:36;;;;;;;3.63;3.33;;;9.50;78.10;;;;;;4988241;28;20038;-81
2021/11/14 08:25:04;;;;;;;3.60;3.30;;;9.50;78.10;;;;;;4988944;28;20034;-82
2021/11/14 08:27:31;;;;;;;4.15;3.38;;;9.50;78.10;;;;;;4989238;28;20385;-82
2021/11/14 08:29:58;;;;;;;2.97;2.67;;;9.50;78.10;;;;;;4989069;28;20030;-80
2021/11/14 08:32:25;;;;;;;4.10;3.22;;;9.50;78.10;;;;;;4971506;28;20155;-82
2021/11/14 08:34:51;;;;;;;3.47;3.17;;;9.40;77.90;;;;;;4971569;28;20046;-80
2021/11/14 08:37:17;;;;;;;3.47;3.17;;;9.50;78.10;;;;;;4988898;28;20042;-83
2021/11/14 08:39:43;;;;;;;3.75;3.20;;;9.40;78.00;;;;;;4988533;28;20030;-82
2021/11/14 08:42:11;;;;;;;3.15;2.67;;;9.40;78.00;;;;;;4988970;28;20042;-82
2021/11/14 08:44:37;;;;;;;3.70;3.40;;;9.50;78.20;;;;;;4988281;28;20030;-82
2021/11/14 08:47:04;;;;;;;3.22;2.88;;;9.40;78.00;;;;;;4988727;28;20053;-82
2021/11/14 08:49:30;;;;;;;3.33;3.03;;;9.50;78.20;;;;;;4971225;28;20038;-82
2021/11/14 08:51:56;;;;;;;4.18;3.40;;;9.50;78.20;;;;;;4988437;28;20034;-83
2021/11/14 08:54:23;;;;;;;3.95;3.55;;;9.50;78.20;;;;;;4988595;28;20273;-82
2021/11/14 08:56:50;;;;;;;3.65;3.30;;;9.50;78.20;;;;;;4988392;28;20039;-83
2021/11/14 08:59:16;;;;;;;3.47;3.10;;;9.50;78.20;;;;;;4988034;28;20054;-82
2021/11/14 09:01:42;;;;;;;3.72;3.42;;;9.50;78.20;;;;;;4970890;28;20121;-82
2021/11/14 09:04:08;;;;;;;3.75;3.33;;;9.50;78.30;;;;;;4988170;28;20708;-82
2021/11/14 09:06:35;;;;;;;4.22;3.47;;;9.50;78.30;;;;;;4987943;28;20034;-82
2021/11/14 09:09:10;;;;;;;4.05;3.65;;;9.50;78.30;;;;;;4957005;28;20054;-82
2021/11/14 09:11:44;;;;;;;3.78;3.45;;;9.50;78.30;;;;;;4968607;28;20042;-81
2021/11/14 09:14:11;;;;;;;3.63;3.22;;;9.60;78.50;;;;;;4969015;28;20027;-82
2021/11/14 09:16:38;;;;;;;3.50;3.20;;;9.60;78.50;;;;;;4968837;28;20042;-82
2021/11/14 09:19:06;;;;;;;3.78;3.42;;;9.60;78.50;;;;;;4968711;28;20578;-82
2021/11/14 09:21:36;;;;;;;3.72;3.42;;;9.60;78.60;;;;;;4951070;28;20030;-83
2021/11/14 09:24:02;;;;;;;4.65;3.70;;;9.60;78.50;;;;;;4968614;28;20027;-82
2021/11/14 09:26:28;;;;;;;4.10;3.80;;;9.60;78.50;;;;;;4951470;28;20558;-82
2021/11/14 09:28:55;;;;;;;6.13;4.25;;;9.60;78.50;;;;;;4969088;28;20479;-82
2021/11/14 09:31:21;;;;;;;4.10;3.65;;;9.60;78.50;;;;;;4951439;28;20035;-83
2021/11/14 09:33:47;;;;;;;4.10;3.60;;;9.70;78.70;;;;;;4968883;28;20125;-82
2021/11/14 09:36:13;;;;;;;4.53;3.95;;;9.70;78.70;;;;;;4968313;28;20042;-81
2021/11/14 09:38:42;;;;;;;4.30;3.90;;;9.70;78.70;;;;;;4950685;28;20047;-80
2021/11/14 09:41:09;;;;;;;5.35;3.78;;;9.70;78.70;;;;;;4968376;28;20035;-79
2021/11/14 09:43:36;;;;;;;4.32;3.92;;;9.70;78.70;;;;;;4950638;28;20105;-80
2021/11/14 09:46:02;;;;;;;7.53;3.97;;;9.70;78.70;;;;;;4968863;28;20094;-81
2021/11/14 09:48:29;;;;;;;6.95;4.85;;;9.70;78.80;;;;;;4968801;28;20046;-81
2021/11/14 09:50:56;;;;;;;7.28;4.68;;;9.80;79.20;;;;;;4951044;28;20118;-80
2021/11/14 09:53:28;;;;;;;6.00;4.43;;;9.80;79.40;;;;;;4967548;28;20026;-82
2021/11/14 09:55:54;;;;;;;8.52;5.22;;;9.80;79.40;;;;;;4968305;28;20071;-82
2021/11/14 09:58:21;;;;;;;7.60;6.22;;;9.90;79.60;;;;;;4969126;28;20034;-83
2021/11/14 10:00:47;;;;;;;11.30;5.97;;;9.90;79.70;;;;;;4950779;28;20034;-84
2021/11/14 10:03:13;;;;;;;7.03;5.57;;;10.00;80.00;;;;;;4979826;28;20058;-84
2021/11/14 10:05:40;;;;;;;6.85;5.88;;;10.00;80.00;;;;;;4970508;28;20049;-83
2021/11/14 10:08:08;;;;;;;8.88;6.15;;;10.10;80.20;;;;;;4970257;28;20097;-85
2021/11/14 10:10:39;;;;;;;7.25;5.53;;;10.10;80.20;;;;;;4987082;28;20508;-83
2021/11/14 10:13:35;;;;;;;6.07;4.70;;;10.10;80.30;;;;;;4970334;28;20058;-85
2021/11/14 10:16:17;;;;;;;9.23;5.70;;;10.10;80.30;;;;;;4950968;28;20046;-82
2021/11/14 10:18:56;;;;;;;8.18;5.55;;;10.20;80.50;;;;;;4987431;28;20045;-83
2021/11/14 10:21:25;;;;;;;6.28;5.68;;;10.20;80.50;;;;;;4969930;28;20161;-83
2021/11/14 10:23:52;;;;;;;6.72;4.80;;;10.30;80.60;;;;;;4969184;28;20389;-83
2021/11/14 10:26:18;;;;;;;7.78;6.05;;;10.30;80.60;;;;;;4945211;28;20031;-83
2021/11/14 10:28:46;;;;;;;7.85;5.40;;;10.30;80.60;;;;;;4958872;28;20041;-82
2021/11/14 10:31:15;;;;;;;7.40;5.50;;;10.40;80.80;;;;;;4967290;28;20023;-82
2021/11/14 10:33:41;;;;;;;14.90;7.95;;;10.40;80.80;;;;;;4967280;28;20035;-84
2021/11/14 10:36:08;;;;;;;14.45;7.75;;;10.40;80.80;;;;;;4967649;28;20050;-85
2021/11/14 10:38:37;;;;;;;18.63;10.90;;;10.50;81.30;;;;;;4967224;28;20030;-83
2021/11/14 10:41:07;;;;;;;11.77;7.68;;;10.60;81.70;;;;;;4966128;28;20359;-84
2021/11/14 10:43:38;;;;;;;12.70;7.63;;;10.70;82.00;;;;;;4967787;28;20505;-86
2021/11/14 10:46:13;;;;;;;13.65;7.15;;;10.70;82.00;;;;;;4967889;28;20027;-82
2021/11/14 10:48:39;;;;;;;11.65;7.63;;;10.80;82.20;;;;;;4949912;28;20466;-83
2021/11/14 10:51:07;;;;;;;13.32;8.60;;;10.80;82.10;;;;;;4949217;28;20115;-85
2021/11/14 10:53:33;;;;;;;10.68;7.00;;;10.90;82.30;;;;;;4949611;28;20034;-86
2021/11/14 10:56:03;;;;;;;9.82;6.50;;;10.90;82.30;;;;;;4950324;28;20530;-86
2021/11/14 10:58:30;;;;;;;9.95;6.72;;;10.90;82.30;;;;;;4976326;28;20030;-80
2021/11/14 11:01:01;;;;;;;11.85;8.40;;;11.00;82.40;;;;;;4967305;28;20486;-80
2021/11/14 11:03:33;;;;;;;9.57;7.93;;;11.00;82.40;;;;;;4975662;28;20166;-80
2021/11/14 11:06:01;;;;;;;13.07;7.13;;;11.00;82.50;;;;;;4969844;28;20425;-81
2021/11/14 11:08:27;;;;;;;12.13;6.93;;;11.10;82.60;;;;;;4969228;28;20034;-84
2021/11/14 11:10:57;;;;;;;10.00;6.40;;;11.10;82.60;;;;;;4969879;28;20037;-83
2021/11/14 11:13:45;;;;;;;10.88;7.50;;;11.20;82.80;;;;;;4986893;28;20030;-84
2021/11/14 11:16:13;;;;;;;10.10;6.65;;;11.20;82.70;;;;;;4986839;28;20501;-80
2021/11/14 11:18:41;;;;;;;9.75;7.18;;;11.30;82.80;;;;;;4986597;28;20084;-82
2021/11/14 11:21:09;;;;;;;8.88;7.45;;;11.30;82.80;;;;;;4970305;28;20030;-80
2021/11/14 11:23:40;;;;;;;7.72;6.82;;;11.30;82.70;;;;;;4970974;28;20051;-84
2021/11/14 11:26:07;;;;;;;7.63;6.70;;;11.40;82.80;;;;;;4973063;28;20113;-83
2021/11/14 11:28:39;;;;;;;8.90;6.38;;;11.40;82.70;;;;;;4956810;28;20125;-81
2021/11/14 11:31:13;;;;;;;10.15;7.15;;;11.40;82.70;;;;;;4972373;28;20173;-82
2021/11/14 11:33:45;;;;;;;9.98;6.60;;;11.50;82.70;;;;;;4990622;28;20030;-82
2021/11/14 11:36:14;;;;;;;8.98;6.95;;;11.50;82.70;;;;;;4989984;28;20042;-80
2021/11/14 11:38:43;;;;;;;10.50;7.78;;;11.60;82.70;;;;;;4972020;28;20497;-80
2021/11/14 11:41:11;;;;;;;9.10;6.63;;;11.60;82.60;;;;;;4989295;28;20030;-80
2021/11/14 11:43:38;;;;;;;11.00;6.70;;;11.70;82.70;;;;;;4955358;28;20037;-81
2021/11/14 11:46:13;;;;;;;9.98;6.47;;;11.60;82.40;;;;;;4989390;28;20034;-80
2021/11/14 11:48:44;;;;;;;9.65;7.00;;;11.70;82.50;;;;;;4989312;28;20474;-80
2021/11/14 11:51:14;;;;;;;7.88;6.43;;;11.80;82.60;;;;;;4989197;28;20364;-80
2021/11/14 11:53:41;;;;;;;10.60;7.60;;;11.80;82.50;;;;;;4989150;28;20649;-80
2021/11/14 11:56:16;;;;;;;10.43;6.30;;;11.80;82.50;;;;;;4989431;28;20038;-79
2021/11/14 11:58:46;;;;;;;10.30;6.72;;;11.90;82.50;;;;;;4971320;28;20671;-80
2021/11/14 12:01:50;;;;;;;9.40;6.80;;;11.90;82.40;;;;;;4987324;28;20026;-79
2021/11/14 12:04:20;;;;;;;8.13;6.30;;;12.00;82.40;;;;;;4971337;28;20038;-80
2021/11/14 12:06:56;;;;;;;8.43;5.85;;;12.10;82.40;;;;;;4988491;28;20096;-80
2021/11/14 12:09:40;;;;;;;8.75;6.43;;;12.10;82.30;;;;;;4970710;28;20441;-79
2021/11/14 12:12:26;;;;;;;8.45;6.43;;;12.10;82.20;;;;;;4988852;28;20039;-80
2021/11/14 12:15:16;;;;;;;10.55;7.10;;;12.20;82.30;;;;;;4955678;28;20034;-81
2021/11/14 12:18:00;;;;;;;9.63;7.10;;;12.20;82.50;;;;;;4971724;28;20444;-82
2021/11/14 12:20:34;;;;;;;9.13;6.97;;;12.20;82.10;;;;;;4971556;28;20030;-78
2021/11/14 12:23:06;;;;;;;9.25;6.57;;;12.30;82.10;;;;;;4970686;28;20037;-81
2021/11/14 12:25:37;;;;;;;11.18;8.13;;;12.40;82.20;;;;;;4989205;28;20030;-77
2021/11/14 12:28:09;;;;;;;9.38;7.57;;;12.40;82.20;;;;;;4991007;28;20488;-80
2021/11/14 12:30:41;;;;;;;9.20;7.95;;;12.50;82.40;;;;;;4967556;28;20027;-81
2021/11/14 12:33:08;;;;;;;8.60;6.95;;;12.50;82.30;;;;;;4963569;28;20064;-82
2021/11/14 12:35:43;;;;;;;9.05;7.32;;;12.60;82.30;;;;;;4988645;28;20046;-79
2021/11/14 12:38:14;;;;;;;11.23;7.88;;;12.60;82.30;;;;;;4988608;28;20042;-80
2021/11/14 12:40:47;;;;;;;9.95;7.50;;;12.70;82.30;;;;;;4988344;28;20041;-80
2021/11/14 12:43:20;;;;;;;9.40;7.28;;;12.70;82.20;;;;;;4954709;28;20033;-80
2021/11/14 12:45:49;;;;;;;9.93;7.60;;;12.90;82.50;;;;;;4989301;28;20120;-80
2021/11/14 12:48:16;;;;;;;9.25;7.57;;;12.90;82.30;;;;;;4987523;28;20113;-81
2021/11/14 12:50:43;;;;;;;8.05;7.25;;;13.00;82.40;;;;;;4954357;28;20227;-81
2021/11/14 12:53:13;;;;;;;9.77;7.75;;;13.10;82.30;;;;;;4970054;28;20054;-82
2021/11/14 12:55:43;;;;;;;8.15;6.72;;;13.20;82.30;;;;;;4970994;28;20173;-82
2021/11/14 12:58:12;;;;;;;10.43;7.20;;;13.20;82.10;;;;;;4954971;28;20045;-80